Concord Corner, Vermont
Current Conditions -  °F | °C
As of 2:15 AM on Friday 31 Oct 2014 (Local Time) from KCDA Reporting Station
Overcast Overcast  
Wind Chill: 39°   Ceiling: 4100
Heat Index: 39°   Visibility: 10mi
Dew Point: 32°   Wind: 0mph
Humidity: 77%   Direction: NA
Pressure: 30.01"   Gusts: NA
Location:  44.4417°N, 71.859°W
Report Text: KCDA 310615Z AUTO 00000KT 10SM OVC041 04/00 A3001 RMK AO2 T00370000
Loading
Personal Weather Stations






























Interactive Weather Map
Tropical Storm Tracking
New forecast layout! Learn more

10-Day Weather Forecast

Advertisements
Track Severe Weather on mobile